Avalon, Pennsylvania
Current Conditions -  °F | °C
As of 2:51 PM on Sunday 21 Dec 2014 (Local Time) from KPIT Reporting Station
Overcast Overcast  
Wind Chill: 33°   Ceiling: 2700
Heat Index: 33°   Visibility: 10mi
Dew Point: 22°   Wind: 0mph
Humidity: 64%   Direction: NA
Pressure: 30.23"   Gusts: NA
Location:  40.5069°N, 80.0715°W
Report Text: KPIT 211951Z 00000KT 10SM OVC027 01/M06 A3023 RMK AO2 SLP259 T00061056
Loading
Personal Weather Stations






























Interactive Weather Map New forecast layout! Learn more

10-Day Weather Forecast

Advertisements
Track Severe Weather on mobile